Lake View, NY (14085)

4:10 PM EST on February 01, 2015 (GMT -0500)
APRSWXNET Hamburg NY US | Change Station
CLOSE
Current Station
Personal Weather Station
Location: Hamburg, NY
Elevation: 820 ft
Nearby Weather Stations
Active Advisory: Winter Storm Warning

Elev 820 ft 42.71 °N, 78.83 °W | Updated 48 minutes ago

Overcast
Overcast
21 °F
Feels Like 13 °F
N
6
Wind Variable Wind from East
Gusts 13.0 mph

Today
High -- | Low -- °F
--% Chance of Precip.
Yesterday
High -- | Low -- °F
Precip. -- in
7:30 AM 5:28 PM
Waxing Gibbous, 96% visible
Pressure 30.08 in
Visibility 1.0 miles
Clouds Mostly Cloudy 2500 ft
Overcast 3500 ft
Windchill 13 °F
Dew Point 17 °F
Humidity 84%
Rainfall 0.00 in
Snow Depth Not available.
UV 0 out of 12
Pollen .10 out of 12
Air Quality Not available.
Flu Activity Not available.
METAR KBUF 012054Z 06014KT 1SM R23/P6000FT -SN BKN025 OVC035 M08/M11 A3008

More Conditions Fewer Conditions

Pressure 30.08 in
Visibility 1.0 miles
Clouds Mostly Cloudy 2500 ft
Overcast 3500 ft
Windchill 13 °F
Dew Point 17 °F
Humidity 84%
Rainfall 0.00 in
Snow Depth Not available.
UV 0 out of 12
Pollen .10 out of 12
Air Quality Not available.
Flu Activity Not available.
METAR KBUF 012054Z 06014KT 1SM R23/P6000FT -SN BKN025 OVC035 M08/M11 A3008

More Conditions Fewer Conditions

10-Day Weather Forecast

Almanac

Astronomy

Feb. 01, 2015 Rise Set
Actual Time
Civil Twilight
Nautical Twilight
Astronomical Twilight
Moon
Length of Visible Light
Length of Day
Tomorrow will be .
, % of the Moon is Illuminated

Today's Extremes

State Highs State Lows

Community

WunderPhotos

Upload Photos

1,792,535 photos uploaded!

WunderBlogs® & News

Nearby

Air Quality

  Air Quality AQ Index Pollutant
Not available.

Snow Depth

Station Depth Elevation

Earthquake Activity

City Distance Mag. Time & Date
Minimum magnitude displayed is 2.5.

Coastal Water Temperatures

Place Temperature

Nearby Weather Stations